createdAt,value
2023-11-30T00:02:18.860Z,99597.91
2023-11-30T00:05:23.635Z,99620.84
2023-11-30T00:08:25.656Z,99599.50
2023-11-30T00:11:27.569Z,99615.78
2023-11-30T00:14:29.302Z,99625.09
2023-11-30T00:17:31.133Z,99616.47
2023-11-30T00:20:35.184Z,99562.38
2023-11-30T00:23:37.205Z,99561.69
2023-11-30T00:26:39.046Z,99625.00
2023-11-30T00:29:40.905Z,99624.31
2023-11-30T00:32:42.923Z,99629.16
2023-11-30T00:35:46.458Z,99633.31
2023-11-30T00:38:48.293Z,99620.72
2023-11-30T00:41:50.615Z,99639.41
2023-11-30T00:44:52.463Z,99662.63
2023-11-30T00:48:00.950Z,99638.09
2023-11-30T00:51:04.648Z,99646.59
2023-11-30T00:54:06.740Z,99645.63
2023-11-30T00:57:09.059Z,99656.88
2023-11-30T01:00:11.592Z,99662.97
2023-11-30T01:03:13.524Z,99666.38
2023-11-30T01:06:17.201Z,99675.84
2023-11-30T01:09:19.095Z,99662.44
2023-11-30T01:12:21.344Z,99675.06
2023-11-30T01:15:23.183Z,99671.88
2023-11-30T01:18:25.494Z,99640.66
2023-11-30T01:21:28.885Z,99670.00
2023-11-30T01:24:30.723Z,99680.41
2023-11-30T01:27:32.503Z,99672.59
2023-11-30T01:30:34.375Z,99619.31
2023-11-30T01:33:36.615Z,99678.69
2023-11-30T01:36:40.880Z,99672.59
2023-11-30T01:39:42.612Z,99657.06
2023-11-30T01:42:44.494Z,99656.34
2023-11-30T01:45:46.437Z,99670.84
2023-11-30T01:48:48.816Z,99572.97
2023-11-30T01:51:52.563Z,99647.06
2023-11-30T01:54:55.225Z,99655.34
2023-11-30T01:57:57.506Z,99665.66
2023-11-30T02:00:59.678Z,99607.28
2023-11-30T02:04:11.445Z,99656.28
2023-11-30T02:07:14.743Z,99665.69
2023-11-30T02:10:17.183Z,99655.50
2023-11-30T02:13:18.963Z,99646.03
2023-11-30T02:16:21.108Z,99661.84
2023-11-30T02:19:22.974Z,99660.91
2023-11-30T02:22:26.697Z,99595.19
2023-11-30T02:25:28.464Z,99628.09
2023-11-30T02:28:30.451Z,99661.56
2023-11-30T02:31:32.519Z,99679.72
2023-11-30T02:34:34.477Z,99681.25
2023-11-30T02:37:37.809Z,99655.78
2023-11-30T02:40:39.819Z,99524.81
2023-11-30T02:43:41.609Z,99663.03
2023-11-30T02:46:43.412Z,99532.13
2023-11-30T02:49:45.384Z,99645.91
2023-11-30T02:52:49.779Z,99654.47
2023-11-30T02:55:51.579Z,99543.91
2023-11-30T02:58:53.552Z,99669.94
2023-11-30T03:01:55.544Z,99672.50
2023-11-30T03:04:57.555Z,99603.50
2023-11-30T03:08:01.004Z,99671.75
2023-11-30T03:11:02.777Z,99666.69
2023-11-30T03:14:04.890Z,99663.31
2023-11-30T03:17:06.613Z,99647.03
2023-11-30T03:20:09.496Z,99636.59
2023-11-30T03:23:12.788Z,99663.03
2023-11-30T03:26:17.018Z,99581.75
2023-11-30T03:29:18.847Z,99665.53
2023-11-30T03:32:20.588Z,99651.25
2023-11-30T03:35:22.439Z,99655.31
2023-11-30T03:38:25.767Z,99667.91
2023-11-30T03:41:27.713Z,99675.94
2023-11-30T03:44:29.605Z,99668.78
2023-11-30T03:47:31.523Z,99672.94
2023-11-30T03:50:33.594Z,99672.97
2023-11-30T03:53:37.170Z,99687.75
2023-11-30T03:56:39.254Z,99670.38
2023-11-30T03:59:41.208Z,99654.25
2023-11-30T04:02:45.219Z,99676.53
2023-11-30T04:05:47.011Z,99667.16
2023-11-30T04:08:50.900Z,99678.28
2023-11-30T04:11:52.679Z,99688.59
2023-11-30T04:14:54.560Z,99684.38
2023-11-30T04:17:56.553Z,99595.03
2023-11-30T04:20:58.412Z,99672.50
2023-11-30T04:24:01.864Z,99611.72
2023-11-30T04:27:04.284Z,99680.09
2023-11-30T04:30:08.161Z,99664.84
2023-11-30T04:33:10.358Z,99671.41
2023-11-30T04:36:12.531Z,99674.00
2023-11-30T04:39:15.857Z,99662.06
2023-11-30T04:42:17.676Z,99672.38
2023-11-30T04:45:20.056Z,99615.78
2023-11-30T04:48:21.870Z,99675.94
2023-11-30T04:51:24.175Z,99685.44
2023-11-30T04:54:27.641Z,99662.38
2023-11-30T04:57:29.531Z,99691.34
2023-11-30T05:00:31.618Z,99604.31
2023-11-30T05:03:34.004Z,99689.63
2023-11-30T05:06:35.934Z,99702.88
2023-11-30T05:09:39.141Z,99699.16
2023-11-30T05:12:41.312Z,99694.63
2023-11-30T05:15:45.084Z,99723.22
2023-11-30T05:18:48.232Z,99626.09
2023-11-30T05:21:50.234Z,99698.59
2023-11-30T05:24:53.716Z,99697.50
2023-11-30T05:27:55.509Z,99701.59
2023-11-30T05:30:57.885Z,99711.63
2023-11-30T05:33:59.760Z,99704.59
2023-11-30T05:37:02.170Z,99615.91
2023-11-30T05:40:07.298Z,99708.66
2023-11-30T05:43:09.367Z,99682.16
2023-11-30T05:46:11.441Z,99697.44
2023-11-30T05:49:13.642Z,99727.72
2023-11-30T05:52:15.560Z,99711.50
2023-11-30T05:55:19.176Z,99703.50
2023-11-30T05:58:21.267Z,99678.28
2023-11-30T06:01:23.043Z,99691.38
2023-11-30T06:04:25.043Z,99700.91
2023-11-30T06:07:26.923Z,99702.47
2023-11-30T06:10:30.291Z,99720.38
2023-11-30T06:13:32.200Z,99709.16
2023-11-30T06:16:35.579Z,99705.13
2023-11-30T06:19:37.367Z,99715.50
2023-11-30T06:22:39.754Z,99719.78
2023-11-30T06:25:43.160Z,99719.84
2023-11-30T06:28:45.027Z,99735.25
2023-11-30T06:31:47.233Z,99725.84
2023-11-30T06:34:49.133Z,99738.81
2023-11-30T06:37:50.848Z,99751.75
2023-11-30T06:40:54.564Z,99737.13
2023-11-30T06:43:56.763Z,99736.94
2023-11-30T06:47:05.320Z,99733.09
2023-11-30T06:50:09.201Z,99664.53
2023-11-30T06:53:11.512Z,99740.44
2023-11-30T06:56:14.968Z,99730.94
2023-11-30T06:59:17.639Z,99733.59
2023-11-30T07:02:20.362Z,99730.94
2023-11-30T07:05:22.326Z,99737.97
2023-11-30T07:08:25.190Z,99744.22
2023-11-30T07:11:28.639Z,99738.28
2023-11-30T07:14:30.424Z,99724.66
2023-11-30T07:17:52.078Z,99718.91
2023-11-30T07:20:53.851Z,99662.53
2023-11-30T07:23:56.257Z,99733.56
2023-11-30T07:27:00.149Z,99741.19
2023-11-30T07:30:02.814Z,99683.94
2023-11-30T07:33:04.779Z,99748.03
2023-11-30T07:36:07.396Z,99746.47
2023-11-30T07:39:09.417Z,99741.72
2023-11-30T07:42:16.735Z,99737.97
2023-11-30T07:45:20.601Z,99743.34
2023-11-30T07:48:22.637Z,99748.56
2023-11-30T07:51:24.900Z,99755.50
2023-11-30T07:54:26.821Z,99754.69
2023-11-30T07:57:30.170Z,99748.63
2023-11-30T08:00:32.732Z,99772.47
2023-11-30T08:03:34.880Z,99758.09
2023-11-30T08:06:36.824Z,99748.06
2023-11-30T08:09:39.057Z,99766.56
2023-11-30T08:12:42.240Z,99765.19
2023-11-30T08:15:44.037Z,99771.69
2023-11-30T08:18:46.263Z,99763.25
2023-11-30T08:21:48.238Z,99748.59
2023-11-30T08:24:51.967Z,99763.31
2023-11-30T08:27:55.628Z,99763.16
2023-11-30T08:30:57.699Z,99748.63
2023-11-30T08:33:59.712Z,99751.41
2023-11-30T08:37:01.636Z,99772.53
2023-11-30T08:40:03.791Z,99759.78
2023-11-30T08:43:06.890Z,99773.50
2023-11-30T08:46:08.998Z,99764.16
2023-11-30T08:49:10.889Z,99766.88
2023-11-30T08:52:13.013Z,99785.63
2023-11-30T08:55:14.995Z,99767.13
2023-11-30T08:58:18.730Z,99786.47
2023-11-30T09:01:20.625Z,99778.78
2023-11-30T09:04:22.746Z,99779.63
2023-11-30T09:07:24.759Z,99775.47
2023-11-30T09:10:26.942Z,99772.13
2023-11-30T09:13:30.474Z,99771.28
2023-11-30T09:16:32.209Z,99776.25
2023-11-30T09:19:34.764Z,99707.00
2023-11-30T09:22:36.920Z,99771.94
2023-11-30T09:25:38.772Z,99779.59
2023-11-30T09:28:41.997Z,99709.47
2023-11-30T09:31:44.412Z,99778.72
2023-11-30T09:34:46.621Z,99716.22
2023-11-30T09:37:48.655Z,99754.59
2023-11-30T09:40:52.672Z,99772.31
2023-11-30T09:43:57.710Z,99774.13
2023-11-30T09:46:59.762Z,99779.06
2023-11-30T09:50:01.595Z,99773.09
2023-11-30T09:53:03.785Z,99772.16
2023-11-30T09:56:06.820Z,99778.84
2023-11-30T09:59:10.026Z,99765.41
2023-11-30T10:02:11.942Z,99771.78
2023-11-30T10:05:13.916Z,99768.41
2023-11-30T10:08:15.969Z,99768.34
2023-11-30T10:11:17.915Z,99431.31
2023-11-30T10:14:21.669Z,99702.19
2023-11-30T10:17:23.791Z,99750.81
2023-11-30T10:20:25.772Z,99769.41
2023-11-30T10:23:27.597Z,99767.50
2023-11-30T10:26:33.890Z,99661.84
2023-11-30T10:29:43.235Z,99765.47
2023-11-30T10:32:45.637Z,99754.25
2023-11-30T10:35:50.641Z,99761.69
2023-11-30T10:38:53.902Z,99762.59
2023-11-30T10:41:56.498Z,99760.81
2023-11-30T10:45:03.112Z,99762.97
2023-11-30T10:48:06.610Z,99756.91
2023-11-30T10:51:11.703Z,99722.06
2023-11-30T10:54:26.131Z,99757.34
2023-11-30T10:57:28.184Z,99707.44
2023-11-30T11:00:35.396Z,99762.19
2023-11-30T11:03:37.579Z,99752.72
2023-11-30T11:06:39.470Z,99767.22
2023-11-30T11:09:43.450Z,99687.50
2023-11-30T11:12:50.192Z,99678.13
2023-11-30T11:16:00.900Z,99675.25
2023-11-30T11:19:05.081Z,99750.13
2023-11-30T11:22:15.747Z,99740.69
2023-11-30T11:25:17.747Z,99743.91
2023-11-30T11:28:21.288Z,99727.66
2023-11-30T11:31:24.999Z,99743.63
2023-11-30T11:34:27.065Z,99620.91
2023-11-30T11:37:28.996Z,99634.88
2023-11-30T11:40:30.941Z,99661.34
2023-11-30T11:43:32.770Z,99718.53
2023-11-30T11:46:36.291Z,99723.38
2023-11-30T11:49:39.283Z,99673.78
2023-11-30T11:52:41.249Z,99700.44
2023-11-30T11:55:43.251Z,99740.34
2023-11-30T11:58:45.793Z,99572.78
2023-11-30T12:01:49.036Z,99669.44
2023-11-30T12:04:51.175Z,99661.69
2023-11-30T12:07:55.965Z,99621.72
2023-11-30T12:10:58.636Z,99737.38
2023-11-30T12:14:00.557Z,99707.88
2023-11-30T12:17:03.771Z,99675.88
2023-11-30T12:20:06.984Z,99727.09
2023-11-30T12:23:08.947Z,99708.38
2023-11-30T12:26:10.954Z,99688.97
2023-11-30T12:29:12.880Z,99672.88
2023-11-30T12:32:16.048Z,99726.06
2023-11-30T12:35:17.881Z,99729.09
2023-11-30T12:38:19.914Z,99740.66
2023-11-30T12:41:21.866Z,99663.94
2023-11-30T12:44:23.766Z,99738.19
2023-11-30T12:47:33.354Z,99727.41
2023-11-30T12:50:35.278Z,99734.69
2023-11-30T12:53:37.193Z,99754.50
2023-11-30T12:56:38.989Z,99734.19
2023-11-30T12:59:40.851Z,99751.25
2023-11-30T13:02:44.717Z,99742.81
2023-11-30T13:05:47.161Z,99753.03
2023-11-30T13:08:49.048Z,99726.13
2023-11-30T13:11:50.993Z,99741.06
2023-11-30T13:14:53.148Z,99600.97
2023-11-30T13:17:56.475Z,99737.03
2023-11-30T13:20:58.411Z,99755.22
2023-11-30T13:24:00.414Z,99741.44
2023-11-30T13:27:02.390Z,99738.41
2023-11-30T13:30:05.294Z,99754.31
2023-11-30T13:33:09.884Z,99742.16
2023-11-30T13:36:12.496Z,99748.44
2023-11-30T13:39:14.267Z,99753.75
2023-11-30T13:42:16.365Z,99710.00
2023-11-30T13:45:18.525Z,99734.47
2023-11-30T13:48:21.767Z,99723.38
2023-11-30T13:51:23.745Z,99751.66
2023-11-30T13:54:25.654Z,99695.84
2023-11-30T13:57:27.705Z,99756.06
2023-11-30T14:00:29.840Z,99749.38
2023-11-30T14:03:33.416Z,99748.81
2023-11-30T14:06:36.443Z,99650.91
2023-11-30T14:09:38.699Z,99770.50
2023-11-30T14:12:41.287Z,99754.28
2023-11-30T14:15:43.051Z,99757.13
2023-11-30T14:18:46.746Z,99646.88
2023-11-30T14:21:48.722Z,99764.97
2023-11-30T14:24:52.882Z,99759.94
2023-11-30T14:27:54.979Z,99741.50
2023-11-30T14:30:57.088Z,99692.00
2023-11-30T14:34:00.395Z,99684.31
2023-11-30T14:37:02.364Z,99769.19
2023-11-30T14:40:06.252Z,99665.59
2023-11-30T14:43:08.256Z,99777.28
2023-11-30T14:46:10.268Z,99752.41
2023-11-30T14:49:14.013Z,99755.78
2023-11-30T14:52:17.359Z,99684.47
2023-11-30T14:55:19.222Z,99765.50
2023-11-30T14:58:21.001Z,99772.53
2023-11-30T15:01:22.928Z,99692.38
2023-11-30T15:04:26.429Z,99708.66
2023-11-30T15:07:28.244Z,99777.88
2023-11-30T15:10:30.047Z,99776.41
2023-11-30T15:13:31.839Z,99703.94
2023-11-30T15:16:34.169Z,99787.88
2023-11-30T15:19:37.851Z,99772.44
2023-11-30T15:22:40.063Z,99772.53
2023-11-30T15:25:42.212Z,99704.19
2023-11-30T15:28:44.173Z,99778.78
2023-11-30T15:31:46.302Z,99771.19
2023-11-30T15:34:49.892Z,99716.38
2023-11-30T15:37:52.482Z,99783.25
2023-11-30T15:40:54.352Z,99706.47
2023-11-30T15:43:56.591Z,99774.16
2023-11-30T15:46:58.531Z,99716.97
2023-11-30T15:50:02.215Z,99777.69
2023-11-30T15:53:04.126Z,99776.47
2023-11-30T15:56:06.508Z,99792.50
2023-11-30T15:59:08.498Z,99771.94
2023-11-30T16:02:10.443Z,99778.91
2023-11-30T16:05:14.640Z,99794.63
2023-11-30T16:08:17.407Z,99786.03
2023-11-30T16:11:19.324Z,99798.00
2023-11-30T16:14:21.278Z,99751.66
2023-11-30T16:17:23.108Z,99764.09
2023-11-30T16:20:26.363Z,99793.75
2023-11-30T16:23:28.220Z,99794.84
2023-11-30T16:26:30.405Z,99805.38
2023-11-30T16:29:32.326Z,99732.81
2023-11-30T16:32:34.224Z,99816.69
2023-11-30T16:35:37.460Z,99809.94
2023-11-30T16:38:39.727Z,99806.47
2023-11-30T16:41:41.707Z,99816.78
2023-11-30T16:44:43.675Z,99760.25
2023-11-30T16:47:45.571Z,99814.06
2023-11-30T16:50:49.174Z,99743.31
2023-11-30T16:53:51.083Z,99743.13
2023-11-30T16:56:52.884Z,99824.44
2023-11-30T16:59:54.670Z,99806.38
2023-11-30T17:02:56.763Z,99736.16
2023-11-30T17:05:59.965Z,99807.06
2023-11-30T17:09:02.473Z,99799.56
2023-11-30T17:12:06.456Z,99806.44
2023-11-30T17:15:09.862Z,99800.41
2023-11-30T17:18:12.176Z,99782.00
2023-11-30T17:21:15.984Z,99797.19
2023-11-30T17:24:17.755Z,99798.94
2023-11-30T17:27:19.632Z,99781.13
2023-11-30T17:30:21.540Z,99713.22
2023-11-30T17:33:23.577Z,99786.78
2023-11-30T17:36:26.972Z,99797.03
2023-11-30T17:39:29.185Z,99790.28
2023-11-30T17:42:31.173Z,99767.59
2023-11-30T17:45:33.191Z,99814.22
2023-11-30T17:48:35.206Z,99820.88
2023-11-30T17:51:38.552Z,99794.69
2023-11-30T17:54:40.494Z,99817.25
2023-11-30T17:57:43.587Z,99821.59
2023-11-30T18:00:45.402Z,99817.44
2023-11-30T18:03:47.369Z,99811.84
2023-11-30T18:06:50.888Z,99760.59
2023-11-30T18:09:52.696Z,99727.84
2023-11-30T18:12:54.738Z,99826.31
2023-11-30T18:15:57.016Z,99824.56
2023-11-30T18:18:58.869Z,99825.69
2023-11-30T18:22:02.078Z,99829.09
2023-11-30T18:25:04.117Z,99826.84
2023-11-30T18:28:06.196Z,99836.03
2023-11-30T18:31:16.541Z,99826.72
2023-11-30T18:34:24.044Z,99821.50
2023-11-30T18:37:27.144Z,99827.31
2023-11-30T18:40:29.128Z,99820.66
2023-11-30T18:43:31.783Z,99818.94
2023-11-30T18:46:33.365Z,99828.41
2023-11-30T18:49:35.579Z,99820.63
2023-11-30T18:52:38.846Z,99828.44
2023-11-30T18:55:40.624Z,99825.88
2023-11-30T18:58:42.562Z,99825.69
2023-11-30T19:01:44.421Z,99746.22
2023-11-30T19:04:46.522Z,99824.22
2023-11-30T19:07:49.757Z,99831.63
2023-11-30T19:10:51.592Z,99826.41
2023-11-30T19:13:53.365Z,99827.91
2023-11-30T19:16:55.558Z,99757.56
2023-11-30T19:19:57.393Z,99821.63
2023-11-30T19:23:00.712Z,99834.47
2023-11-30T19:26:02.471Z,99832.50
2023-11-30T19:29:04.439Z,99834.91
2023-11-30T19:32:06.846Z,99809.56
2023-11-30T19:35:09.379Z,99828.06
2023-11-30T19:38:12.687Z,99761.50
2023-11-30T19:41:14.634Z,99824.69
2023-11-30T19:44:16.926Z,99830.81
2023-11-30T19:47:25.434Z,99835.06
2023-11-30T19:50:27.611Z,99767.31
2023-11-30T19:53:30.999Z,99829.63
2023-11-30T19:56:33.042Z,99837.28
2023-11-30T19:59:34.890Z,99841.56
2023-11-30T20:02:36.940Z,99840.59
2023-11-30T20:05:38.953Z,99773.31
2023-11-30T20:08:42.182Z,99849.50
2023-11-30T20:11:43.985Z,99842.75
2023-11-30T20:14:45.846Z,99853.09
2023-11-30T20:17:47.753Z,99835.19
2023-11-30T20:20:49.562Z,99852.97
2023-11-30T20:23:52.793Z,99822.63
2023-11-30T20:26:54.758Z,99867.69
2023-11-30T20:29:56.547Z,99862.72
2023-11-30T20:32:58.457Z,99863.56
2023-11-30T20:36:00.300Z,99861.09
2023-11-30T20:39:03.523Z,99862.84
2023-11-30T20:42:05.743Z,99857.19
2023-11-30T20:45:09.220Z,99877.69
2023-11-30T20:48:11.062Z,99864.84
2023-11-30T20:51:18.105Z,99876.69
2023-11-30T20:54:21.634Z,99878.59
2023-11-30T20:57:23.431Z,99817.03
2023-11-30T21:00:25.340Z,99889.84
2023-11-30T21:03:27.293Z,99895.09
2023-11-30T21:06:29.117Z,99893.31
2023-11-30T21:09:32.537Z,99896.00
2023-11-30T21:12:34.493Z,99870.50
2023-11-30T21:15:36.415Z,99820.88
2023-11-30T21:18:38.388Z,99879.88
2023-11-30T21:21:40.308Z,99883.53
2023-11-30T21:24:43.471Z,99883.41
2023-11-30T21:27:45.261Z,99879.25
2023-11-30T21:30:47.120Z,99874.34
2023-11-30T21:33:49.245Z,99884.69
2023-11-30T21:36:50.985Z,99888.19
2023-11-30T21:39:54.371Z,99772.16
2023-11-30T21:42:56.472Z,99818.81
2023-11-30T21:45:58.369Z,99807.00
2023-11-30T21:49:00.561Z,99815.56
2023-11-30T21:52:02.888Z,99896.31
2023-11-30T21:55:06.884Z,99886.84
2023-11-30T21:58:09.032Z,99864.13
2023-11-30T22:01:11.275Z,99892.22
2023-11-30T22:04:13.316Z,99888.66
2023-11-30T22:07:15.681Z,99851.66
2023-11-30T22:10:19.360Z,99883.31
2023-11-30T22:13:21.166Z,99879.13
2023-11-30T22:16:28.919Z,99887.75
2023-11-30T22:19:35.162Z,99780.97
2023-11-30T22:22:37.133Z,99893.53
2023-11-30T22:25:40.510Z,99892.06
2023-11-30T22:28:42.239Z,99906.59
2023-11-30T22:31:44.133Z,99872.59
2023-11-30T22:34:46.169Z,99878.72
2023-11-30T22:37:48.453Z,99911.22
2023-11-30T22:40:51.646Z,99820.72
2023-11-30T22:43:53.665Z,99907.00
2023-11-30T22:46:55.786Z,99835.91
2023-11-30T22:49:57.758Z,99911.28
2023-11-30T22:52:59.758Z,99918.31
2023-11-30T22:56:03.534Z,99918.66
2023-11-30T22:59:06.174Z,99806.88
2023-11-30T23:02:08.094Z,99919.41
2023-11-30T23:05:10.041Z,99919.28
2023-11-30T23:08:11.915Z,99819.50
2023-11-30T23:11:15.624Z,99837.97
2023-11-30T23:14:17.583Z,99914.25
2023-11-30T23:17:20.100Z,99925.50
2023-11-30T23:20:22.093Z,99910.06
2023-11-30T23:23:23.802Z,99915.19
2023-11-30T23:26:27.124Z,99896.81
2023-11-30T23:29:28.921Z,99848.63
2023-11-30T23:32:30.858Z,99930.84
2023-11-30T23:35:32.820Z,99925.69
2023-11-30T23:38:35.011Z,99907.06
2023-11-30T23:41:38.125Z,99927.34
2023-11-30T23:44:40.097Z,99918.06
2023-11-30T23:47:42.005Z,99846.19
2023-11-30T23:50:44.165Z,99937.91
2023-11-30T23:53:45.951Z,99934.41
2023-11-30T23:56:49.238Z,99940.47
2023-11-30T23:59:51.115Z,99930.50
